Time;durP1;ratioP1;P1;durP2;ratioP2;P2;SDS_P1;SDS_P2;PMS_P1;PMS_P2;Temp;Humidity;BMP_temperature;BMP_pressure;BME280_temperature;BME280_humidity;BME280_pressure;Samples;Min_cycle;Max_cycle;Signal;HPM_P1;HPM_P2
2022/11/07 00:07:20;;;;;;;17.60;12.55;;;;;;;;;;4928448;29;20215;-89
2022/11/07 00:12:59;;;;;;;;;;;;;;;;;;;;;
2022/11/07 00:21:38;;;;;;;18.65;12.25;;;7.20;99.90;;;;;;5018439;28;20228;-89
2022/11/07 00:28:08;;;;;;;15.93;11.60;;;7.30;99.90;;;;;;4851530;29;20197;-90
2022/11/07 00:30:58;;;;;;;18.33;12.95;;;7.20;99.90;;;;;;4883170;29;20205;-89
2022/11/07 00:33:41;;;;;;;15.40;12.00;;;;;;;;;;4957776;29;20214;-88
2022/11/07 00:36:40;;;;;;;17.58;12.35;;;;;;;;;;4959637;28;20716;-89
2022/11/07 00:39:27;;;;;;;20.50;13.32;;;;;;;;;;5018535;28;20212;-88
2022/11/07 00:42:21;;;;;;;16.65;13.00;;;;;;;;;;5021716;28;20210;-88
2022/11/07 00:45:10;;;;;;;22.25;12.23;;;;;;;;;;5018358;28;20231;-87
2022/11/07 00:48:04;;;;;;;22.48;15.02;;;7.20;99.90;;;;;;5021144;28;20181;-89
2022/11/07 00:50:40;;;;;;;21.20;13.25;;;;;;;;;;5009220;28;20233;-88
2022/11/07 00:53:29;;;;;;;19.67;13.13;;;7.20;99.90;;;;;;5018421;28;20560;-88
2022/11/07 00:56:42;;;;;;;19.50;12.80;;;7.10;99.90;;;;;;5013120;28;20231;-88
2022/11/07 01:01:55;;;;;;;17.77;12.38;;;;;;;;;;4977396;28;20214;-88
2022/11/07 01:05:11;;;;;;;18.55;13.10;;;7.20;99.90;;;;;;4975768;28;20281;-88
2022/11/07 01:16:23;;;;;;;21.95;14.52;;;7.20;99.90;;;;;;4961952;29;20285;-88
2022/11/07 01:18:56;;;;;;;21.08;12.52;;;;;;;;;;4997205;28;20210;-88
2022/11/07 01:24:44;;;;;;;18.10;12.13;;;7.30;99.90;;;;;;5025411;28;20197;-87
2022/11/07 01:27:40;;;;;;;20.10;12.82;;;;;;;;;;5028291;28;20577;-87
2022/11/07 01:33:22;;;;;;;17.83;12.65;;;7.30;99.90;;;;;;5038598;28;20195;-85
2022/11/07 01:36:04;;;;;;;17.02;12.48;;;;;;;;;;5020831;28;20273;-86
2022/11/07 01:38:55;;;;;;;17.13;13.30;;;7.30;99.90;;;;;;5040616;28;20176;-88
2022/11/07 01:41:35;;;;;;;17.15;12.18;;;7.30;99.90;;;;;;5031679;28;20185;-88
2022/11/07 01:44:26;;;;;;;20.17;12.65;;;7.20;99.90;;;;;;5041234;28;20268;-88
2022/11/07 01:47:29;;;;;;;18.60;12.40;;;7.20;99.90;;;;;;5040040;28;20212;-88
2022/11/07 02:05:54;;;;;;;20.55;14.52;;;7.20;99.90;;;;;;4977618;28;20225;-88
2022/11/07 02:34:38;;;;;;;;;;;;;;;;;;;;;
2022/11/07 02:47:04;;;;;;;18.98;12.35;;;;;;;;;;4939284;29;20612;-87
2022/11/07 03:58:20;;;;;;;11.10;9.07;;;;;;;;;;5456295;22;20494;-87
2022/11/07 04:03:56;;;;;;;10.80;8.10;;;8.30;99.90;;;;;;5036637;28;20410;-88
2022/11/07 04:06:46;;;;;;;13.20;9.33;;;8.40;99.90;;;;;;5017086;28;20422;-88
2022/11/07 04:56:41;;;;;;;9.80;7.90;;;8.60;99.90;;;;;;2971531;23;20471;-88
2022/11/07 04:59:25;;;;;;;11.32;8.48;;;;;;;;;;5020793;28;20448;-88
2022/11/07 05:02:00;;;;;;;12.93;7.90;;;;;;;;;;5020810;28;20570;-89
2022/11/07 05:05:17;;;;;;;10.23;8.50;;;8.60;99.90;;;;;;5021752;28;20878;-88
2022/11/07 05:31:46;;;;;;;;;;;;;;;;;;;;;
2022/11/07 06:44:34;;;;;;;9.90;8.73;;;8.90;99.90;;;;;;5028684;23;20526;-87
2022/11/07 06:47:27;;;;;;;12.23;7.70;;;;;;;;;;4988460;28;20513;-86
2022/11/07 06:50:18;;;;;;;7.43;6.30;;;;;;;;;;5019013;28;20840;-86
2022/11/07 06:53:05;;;;;;;9.63;7.13;;;;;;;;;;5018880;28;20479;-85
2022/11/07 06:55:37;;;;;;;7.00;6.30;;;;;;;;;;5019423;28;20407;-86
2022/11/07 06:58:58;;;;;;;7.40;6.50;;;9.00;1.00;;;;;;5021621;28;20494;-87
2022/11/07 07:14:33;;;;;;;7.40;5.97;;;9.10;99.90;;;;;;4992005;28;20469;-86
2022/11/07 07:20:15;;;;;;;7.53;6.57;;;;;;;;;;4940962;29;20467;-85
2022/11/07 07:26:29;;;;;;;7.60;6.73;;;;;;;;;;4858172;29;20233;-86
2022/11/07 07:35:24;;;;;;;6.73;6.07;;;;;;;;;;5004328;28;20447;-87
2022/11/07 07:38:21;;;;;;;6.63;6.03;;;9.30;99.90;;;;;;5033683;28;20406;-87
2022/11/07 07:51:40;;;;;;;6.73;6.13;;;9.60;1.00;;;;;;4970489;29;20436;-87
2022/11/07 08:33:32;;;;;;;;;;;;;;;;;;;;;
2022/11/07 09:01:56;;;;;;;;;;;;;;;;;;;;;
2022/11/07 11:59:05;;;;;;;4.83;2.90;;;13.60;99.90;;;;;;4838030;29;20496;-86
2022/11/07 12:04:58;;;;;;;6.87;2.87;;;13.60;99.90;;;;;;4853280;29;20486;-88
2022/11/07 12:08:37;;;;;;;2.50;2.30;;;13.70;99.90;;;;;;5023001;28;20446;-87
2022/11/07 12:18:25;;;;;;;4.10;2.93;;;13.70;99.90;;;;;;5012370;28;20437;-87
2022/11/07 12:21:30;;;;;;;5.30;4.00;;;13.70;99.90;;;;;;5037881;28;20494;-86
2022/11/07 12:24:37;;;;;;;5.57;3.20;;;13.70;99.90;;;;;;5028186;28;20467;-87
2022/11/07 12:57:52;;;;;;;2.93;2.60;;;13.70;99.90;;;;;;5013351;28;20414;-88
2022/11/07 13:27:39;;;;;;;3.63;2.93;;;13.70;1.00;;;;;;5049118;28;20445;-89
2022/11/07 13:33:58;;;;;;;3.63;2.40;;;13.70;99.90;;;;;;5087839;28;20490;-89
2022/11/07 13:37:03;;;;;;;7.07;3.63;;;13.70;99.90;;;;;;5120423;28;20458;-89
2022/11/07 13:50:23;;;;;;;5.07;3.27;;;13.40;1.00;;;;;;5050728;28;20451;-87
2022/11/07 14:40:32;;;;;;;15.10;6.10;;;;;;;;;;4811605;29;20436;-91
2022/11/07 15:03:12;;;;;;;14.67;9.77;;;13.10;99.90;;;;;;4948449;29;20478;-92
2022/11/07 15:05:59;;;;;;;13.57;7.30;;;;;;;;;;4938924;28;20443;-92
2022/11/07 15:15:50;;;;;;;5.77;4.70;;;13.00;99.90;;;;;;4905015;29;20443;-91
2022/11/07 15:19:07;;;;;;;12.17;4.90;;;13.00;99.90;;;;;;4907147;29;20526;-91
2022/11/07 15:22:30;;;;;;;7.20;5.00;;;12.90;1.00;;;;;;4848229;29;20498;-91
2022/11/07 15:45:49;;;;;;;7.70;4.90;;;12.90;1.00;;;;;;1498842;26;20465;-89
2022/11/07 15:55:29;;;;;;;9.10;5.87;;;12.90;1.00;;;;;;4854043;26;20870;-91
2022/11/07 17:33:30;;;;;;;8.10;4.83;;;12.20;1.00;;;;;;5031394;28;20462;-90
2022/11/07 17:46:20;;;;;;;16.50;8.83;;;12.10;99.90;;;;;;5184503;22;20471;-89
2022/11/07 17:49:32;;;;;;;11.23;7.03;;;12.20;1.00;;;;;;4981108;28;20858;-89
2022/11/07 18:20:14;;;;;;;16.73;8.80;;;;;;;;;;5020640;28;20419;-87
2022/11/07 18:22:41;;;;;;;10.37;8.50;;;;;;;;;;5057157;28;20514;-85
2022/11/07 18:25:08;;;;;;;13.57;9.00;;;12.30;99.90;;;;;;5060020;28;20430;-84
2022/11/07 18:30:21;;;;;;;16.53;8.73;;;;;;;;;;4998103;28;20447;-86
2022/11/07 18:32:48;;;;;;;13.70;7.80;;;;;;;;;;5048717;28;20475;-87
2022/11/07 18:35:15;;;;;;;10.57;4.93;;;;;;;;;;5059851;28;20429;-87
2022/11/07 18:37:42;;;;;;;10.00;6.10;;;;;;;;;;5052527;28;20451;-87
2022/11/07 18:40:10;;;;;;;9.60;7.87;;;12.30;99.90;;;;;;5047463;28;20958;-87
2022/11/07 18:42:37;;;;;;;11.87;8.00;;;;;;;;;;5051166;28;20473;-86
2022/11/07 18:45:05;;;;;;;25.30;12.40;;;;;;;;;;5059586;28;20457;-84
2022/11/07 18:47:33;;;;;;;27.10;12.83;;;12.00;1.00;;;;;;5059863;28;20456;-84
2022/11/07 18:50:00;;;;;;;19.63;11.17;;;;;;;;;;5059706;28;20538;-84
2022/11/07 18:52:29;;;;;;;20.50;11.20;;;12.20;1.00;;;;;;5054023;28;20947;-87
2022/11/07 18:54:58;;;;;;;14.03;8.30;;;;;;;;;;5045758;28;20457;-87
2022/11/07 18:57:25;;;;;;;18.50;9.00;;;;;;;;;;5046546;28;20450;-87
2022/11/07 18:59:52;;;;;;;13.67;8.73;;;12.10;99.90;;;;;;5044349;28;20817;-87
2022/11/07 19:02:19;;;;;;;13.33;7.97;;;12.00;99.90;;;;;;5045159;28;20446;-87
2022/11/07 19:04:47;;;;;;;12.33;7.50;;;11.90;99.90;;;;;;5045186;28;20450;-87
2022/11/07 19:07:13;;;;;;;15.37;8.93;;;11.90;99.90;;;;;;5045087;28;20455;-87
2022/11/07 19:09:40;;;;;;;14.60;8.90;;;;;;;;;;5044242;28;21020;-87
2022/11/07 19:12:07;;;;;;;9.60;7.53;;;11.90;99.90;;;;;;5043681;28;20443;-87
2022/11/07 19:14:34;;;;;;;7.90;6.03;;;11.90;99.90;;;;;;5044600;28;20854;-87
2022/11/07 19:17:01;;;;;;;5.97;4.70;;;11.90;1.00;;;;;;5044948;28;20466;-88
2022/11/07 19:19:28;;;;;;;9.13;6.30;;;;;;;;;;5044717;28;20503;-87
2022/11/07 19:21:57;;;;;;;8.53;5.57;;;;;;;;;;5044375;28;20446;-87
2022/11/07 19:24:23;;;;;;;6.73;5.27;;;11.80;1.00;;;;;;5046264;28;20554;-88
2022/11/07 19:26:50;;;;;;;12.00;5.87;;;11.80;99.90;;;;;;5048856;28;20451;-87
2022/11/07 19:29:17;;;;;;;9.00;5.60;;;11.90;1.00;;;;;;5051703;28;20453;-88
2022/11/07 19:31:43;;;;;;;9.20;5.90;;;11.90;1.00;;;;;;5051563;28;20451;-86
2022/11/07 19:34:11;;;;;;;8.10;5.50;;;;;;;;;;5055833;28;20553;-86
2022/11/07 19:36:37;;;;;;;10.40;6.50;;;12.20;1.00;;;;;;5053678;28;20451;-87
2022/11/07 19:39:05;;;;;;;10.30;6.37;;;11.30;96.40;;;;;;5053299;28;20435;-88
2022/11/07 19:41:32;;;;;;;6.57;4.37;;;11.90;99.90;;;;;;5052373;28;20421;-88
2022/11/07 19:44:03;;;;;;;11.03;7.83;;;12.00;99.90;;;;;;5052549;28;20455;-86
2022/11/07 19:46:29;;;;;;;7.37;4.30;;;12.00;1.00;;;;;;5055437;28;20431;-86
2022/11/07 19:48:56;;;;;;;9.38;5.70;;;12.30;1.00;;;;;;5055518;28;20455;-87
2022/11/07 19:51:23;;;;;;;5.90;4.63;;;12.10;99.90;;;;;;5052310;28;20234;-88
2022/11/07 19:53:54;;;;;;;6.33;5.17;;;11.80;99.90;;;;;;5052621;28;20466;-87
2022/11/07 19:56:23;;;;;;;7.60;4.60;;;11.60;1.00;;;;;;5050030;28;20446;-88
2022/11/07 19:58:50;;;;;;;10.90;5.20;;;12.20;17.40;;;;;;5048004;28;20478;-87
2022/11/07 20:01:19;;;;;;;11.30;6.90;;;12.00;99.90;;;;;;5048219;28;20443;-86
2022/11/07 20:03:49;;;;;;;15.47;7.93;;;11.90;1.00;;;;;;5049260;28;20441;-88
2022/11/07 20:06:19;;;;;;;10.30;6.40;;;12.00;99.90;;;;;;5046282;28;20509;-87
2022/11/07 20:08:46;;;;;;;7.80;5.30;;;12.00;1.00;;;;;;5044473;28;20521;-87
2022/11/07 20:11:14;;;;;;;7.80;5.00;;;;;;;;;;5047293;28;20844;-87
2022/11/07 20:13:43;;;;;;;7.73;4.43;;;11.90;6.20;;;;;;5045713;28;20474;-87
2022/11/07 20:16:10;;;;;;;5.87;4.30;;;11.90;1.00;;;;;;5046950;28;20777;-87
2022/11/07 20:18:39;;;;;;;3.97;3.50;;;11.80;1.00;;;;;;5045972;28;20438;-87
2022/11/07 20:21:12;;;;;;;3.70;2.90;;;11.90;99.90;;;;;;5047119;28;20443;-88
2022/11/07 20:23:39;;;;;;;3.97;3.57;;;11.90;1.00;;;;;;5045628;28;20521;-87
2022/11/07 20:26:07;;;;;;;5.50;3.40;;;11.80;99.90;;;;;;5045583;28;20446;-87
2022/11/07 20:28:34;;;;;;;8.80;3.43;;;11.90;99.90;;;;;;5047853;28;20446;-89
2022/11/07 20:31:07;;;;;;;12.03;4.30;;;11.90;99.90;;;;;;5047016;28;20456;-87
2022/11/07 20:33:33;;;;;;;6.47;4.17;;;11.90;1.00;;;;;;5044777;28;20945;-87
2022/11/07 20:36:03;;;;;;;6.83;3.70;;;11.80;99.90;;;;;;5041513;28;20457;-88
2022/11/07 20:38:33;;;;;;;8.47;4.33;;;;;;;;;;5045668;28;20442;-88
2022/11/07 20:43:49;;;;;;;10.63;5.07;;;;;;;;;;5041705;28;20459;-88
2022/11/07 20:46:22;;;;;;;9.00;4.10;;;;;;;;;;5047281;28;20441;-88
2022/11/07 20:48:52;;;;;;;6.70;3.70;;;;;;;;;;5044644;28;20446;-88
2022/11/07 20:51:21;;;;;;;5.07;3.93;;;11.90;1.00;;;;;;5046632;28;20509;-88
2022/11/07 20:53:48;;;;;;;8.67;5.33;;;11.60;99.90;;;;;;5045664;28;20466;-88
2022/11/07 20:56:19;;;;;;;9.47;6.27;;;11.90;1.00;;;;;;5047271;28;20457;-89
2022/11/07 20:58:47;;;;;;;9.40;4.90;;;;;;;;;;5054455;28;20421;-88
2022/11/07 21:01:15;;;;;;;11.00;5.17;;;11.80;99.90;;;;;;5057569;28;20395;-86
2022/11/07 21:03:44;;;;;;;7.13;5.30;;;;;;;;;;5054141;28;20462;-89
2022/11/07 21:06:11;;;;;;;7.27;5.30;;;;;;;;;;5046433;28;20443;-86
2022/11/07 21:08:38;;;;;;;7.23;3.80;;;;;;;;;;5045093;28;20446;-88
2022/11/07 21:11:05;;;;;;;8.20;4.70;;;11.80;1.00;;;;;;5045423;28;20449;-88
2022/11/07 21:13:31;;;;;;;8.20;5.70;;;11.80;1.00;;;;;;5043485;28;20445;-87
2022/11/07 21:15:58;;;;;;;11.13;6.57;;;;;;;;;;5045496;28;20477;-87
2022/11/07 21:18:25;;;;;;;9.87;5.37;;;;;;;;;;5044146;28;20421;-87
2022/11/07 21:20:54;;;;;;;7.73;4.53;;;11.70;1.00;;;;;;5044316;28;20804;-88
2022/11/07 21:23:20;;;;;;;11.90;4.03;;;11.30;1.00;;;;;;5043860;28;20529;-87
2022/11/07 21:25:48;;;;;;;11.67;4.30;;;11.70;30.10;;;;;;5044168;28;20446;-87
2022/11/07 21:28:17;;;;;;;4.77;3.80;;;11.70;1.00;;;;;;5044500;28;20839;-88
2022/11/07 21:30:45;;;;;;;7.60;4.70;;;11.60;1.00;;;;;;5061328;28;20473;-87
2022/11/07 21:33:11;;;;;;;7.43;4.30;;;11.60;99.90;;;;;;5061309;28;20449;-84
2022/11/07 21:35:41;;;;;;;6.33;4.63;;;11.60;1.00;;;;;;5061356;28;20498;-86
2022/11/07 21:38:09;;;;;;;10.27;4.67;;;11.50;99.90;;;;;;5050250;28;20431;-86
2022/11/07 21:40:37;;;;;;;13.17;5.40;;;11.50;99.90;;;;;;5044283;28;20450;-87
2022/11/07 21:43:04;;;;;;;5.83;5.17;;;11.40;1.00;;;;;;5045098;28;20474;-87
2022/11/07 21:45:31;;;;;;;5.27;3.90;;;11.80;99.90;;;;;;5046431;28;20429;-88
2022/11/07 21:47:59;;;;;;;6.50;3.90;;;;;;;;;;5047301;28;20479;-88
2022/11/07 21:50:25;;;;;;;9.37;5.40;;;11.50;99.90;;;;;;5046442;28;20493;-88
2022/11/07 21:52:52;;;;;;;8.40;4.70;;;11.40;99.90;;;;;;5046206;28;20465;-88
2022/11/07 21:55:20;;;;;;;12.87;4.50;;;11.90;99.90;;;;;;5059041;28;20461;-88
2022/11/07 21:57:47;;;;;;;5.93;3.80;;;;;;;;;;5058998;28;20433;-88
2022/11/07 22:00:15;;;;;;;5.00;3.70;;;12.10;99.90;;;;;;5047484;28;20435;-88
2022/11/07 22:02:42;;;;;;;8.17;3.20;;;11.60;99.90;;;;;;5048885;28;20493;-86
2022/11/07 22:05:09;;;;;;;7.13;3.10;;;11.80;99.90;;;;;;5060203;28;20412;-88
2022/11/07 22:07:37;;;;;;;9.50;3.40;;;;;;;;;;5060405;28;20439;-87
2022/11/07 22:10:05;;;;;;;6.00;3.60;;;11.60;11.70;;;;;;5060156;28;20414;-85
2022/11/07 22:12:33;;;;;;;6.63;4.17;;;11.70;99.90;;;;;;5060703;28;20422;-87
2022/11/07 22:15:00;;;;;;;10.30;4.90;;;11.90;99.90;;;;;;5060675;28;20402;-85
2022/11/07 22:17:27;;;;;;;5.87;4.17;;;11.60;1.00;;;;;;5060781;28;20406;-87
2022/11/07 22:19:53;;;;;;;5.33;4.03;;;11.50;99.90;;;;;;5057621;28;20434;-88
2022/11/07 22:22:20;;;;;;;6.57;4.17;;;11.50;1.00;;;;;;5044733;28;20439;-86
2022/11/07 22:24:50;;;;;;;3.40;3.10;;;11.50;99.90;;;;;;5045326;28;20437;-87
2022/11/07 22:27:22;;;;;;;4.10;3.80;;;11.50;99.90;;;;;;5042792;28;20454;-88
2022/11/07 22:29:51;;;;;;;4.20;3.80;;;;;;;;;;5042876;28;20429;-87
2022/11/07 22:32:19;;;;;;;9.40;5.07;;;;;;;;;;5043536;28;20505;-87
2022/11/07 22:34:46;;;;;;;9.10;4.40;;;;;;;;;;5042982;28;20522;-87
2022/11/07 22:37:13;;;;;;;7.47;3.83;;;;;;;;;;5043343;28;20458;-87
2022/11/07 22:42:23;;;;;;;5.13;4.13;;;;;;;;;;5274124;22;20479;-88
2022/11/07 22:45:03;;;;;;;5.93;3.77;;;;;;;;;;5059440;28;20485;-87
2022/11/07 22:50:52;;;;;;;6.20;4.37;;;11.30;1.00;;;;;;5057680;28;20469;-88
2022/11/07 22:53:19;;;;;;;5.23;3.63;;;11.40;1.00;;;;;;5058799;28;20812;-88
2022/11/07 22:55:45;;;;;;;3.77;3.20;;;11.40;1.00;;;;;;5058623;28;20428;-87
2022/11/07 22:58:12;;;;;;;5.53;3.80;;;11.30;1.00;;;;;;5058200;28;20429;-87
2022/11/07 23:00:43;;;;;;;7.13;4.57;;;11.30;1.00;;;;;;5058374;28;20452;-87
2022/11/07 23:03:11;;;;;;;6.27;5.23;;;;;;;;;;5058805;28;20438;-88
2022/11/07 23:05:38;;;;;;;9.90;4.70;;;;;;;;;;5059526;28;20452;-87
2022/11/07 23:08:06;;;;;;;6.23;4.13;;;;;;;;;;5059166;28;20452;-88
2022/11/07 23:10:35;;;;;;;7.23;3.97;;;11.30;1.00;;;;;;5059167;28;20450;-86
2022/11/07 23:13:03;;;;;;;12.20;4.70;;;;;;;;;;5066310;28;20446;-90
2022/11/07 23:15:31;;;;;;;3.93;3.53;;;;;;;;;;5079560;28;20461;-92
2022/11/07 23:18:00;;;;;;;7.30;4.00;;;;;;;;;;5079539;28;20393;-92
2022/11/07 23:23:12;;;;;;;6.30;3.90;;;11.50;1.00;;;;;;5068732;28;20773;-89
2022/11/07 23:25:38;;;;;;;5.17;2.80;;;11.30;1.00;;;;;;5058395;28;20424;-88
2022/11/07 23:28:06;;;;;;;7.17;3.77;;;11.30;1.00;;;;;;5060519;28;20445;-88
2022/11/07 23:30:33;;;;;;;4.30;3.90;;;11.40;99.90;;;;;;5065879;28;20473;-88
2022/11/07 23:33:01;;;;;;;4.87;3.00;;;11.20;99.90;;;;;;5073894;28;20460;-89
2022/11/07 23:35:27;;;;;;;6.60;3.70;;;11.20;18.90;;;;;;5071147;28;20452;-88
2022/11/07 23:37:54;;;;;;;3.33;3.03;;;11.20;53.60;;;;;;5078873;28;20409;-89
2022/11/07 23:40:21;;;;;;;4.10;3.40;;;11.00;99.90;;;;;;5078973;28;20430;-89
2022/11/07 23:42:47;;;;;;;3.03;2.70;;;11.30;17.40;;;;;;5078681;28;20421;-89
2022/11/07 23:51:05;;;;;;;8.00;4.30;;;10.90;99.90;;;;;;5074536;28;20530;-88
2022/11/07 23:56:18;;;;;;;11.03;3.70;;;11.20;99.90;;;;;;5079000;28;20409;-89
